createdAt,value
2023-01-29T00:00:16.310Z,4.59
2023-01-29T00:01:15.899Z,4.55
2023-01-29T00:02:15.936Z,4.56
2023-01-29T00:03:15.968Z,4.59
2023-01-29T00:04:15.894Z,4.56
2023-01-29T00:05:27.502Z,4.55
2023-01-29T00:06:16.890Z,4.56
2023-01-29T00:07:15.864Z,4.56
2023-01-29T00:08:15.851Z,4.55
2023-01-29T00:09:15.918Z,4.53
2023-01-29T00:10:16.150Z,4.55
2023-01-29T00:11:15.812Z,4.55
2023-01-29T00:12:15.773Z,4.56
2023-01-29T00:13:15.761Z,4.52
2023-01-29T00:14:15.757Z,4.53
2023-01-29T00:15:15.734Z,4.53
2023-01-29T00:16:15.713Z,4.53
2023-01-29T00:17:15.774Z,4.53
2023-01-29T00:18:15.695Z,4.51
2023-01-29T00:19:15.683Z,4.52
2023-01-29T00:20:16.002Z,4.53
2023-01-29T00:21:15.649Z,4.52
2023-01-29T00:22:15.611Z,4.48
2023-01-29T00:23:15.591Z,4.45
2023-01-29T00:24:15.619Z,4.47
2023-01-29T00:25:15.552Z,4.34
2023-01-29T00:43:15.546Z,4.45
2023-01-29T00:44:15.559Z,4.44
2023-01-29T00:45:15.556Z,4.44
2023-01-29T00:46:15.587Z,4.44
2023-01-29T00:47:15.575Z,4.44
2023-01-29T00:48:15.588Z,4.42
2023-01-29T00:49:15.584Z,4.42
2023-01-29T00:50:15.894Z,4.47
2023-01-29T00:51:15.584Z,4.45
2023-01-29T00:52:15.606Z,4.44
2023-01-29T00:53:15.595Z,4.42
2023-01-29T00:54:15.606Z,4.42
2023-01-29T00:55:15.585Z,4.39
2023-01-29T00:56:16.574Z,4.34
2023-01-29T00:57:15.589Z,4.14
2023-01-29T00:58:15.675Z,4.31
2023-01-29T00:59:15.614Z,4.31
2023-01-29T01:00:16.008Z,4.21
2023-01-29T01:01:15.678Z,4.25
2023-01-29T01:02:15.718Z,4.08
2023-01-29T01:03:15.683Z,4.14
2023-01-29T01:04:15.717Z,4.20
2023-01-29T01:05:15.739Z,4.18
2023-01-29T01:06:15.747Z,4.15
2023-01-29T01:07:15.769Z,4.17
2023-01-29T01:28:16.121Z,4.08
2023-01-29T01:53:21.219Z,3.61
2023-01-29T01:54:21.447Z,3.68
2023-01-29T01:55:21.690Z,3.58
2023-01-29T01:56:21.937Z,3.66
2023-01-29T01:57:22.184Z,3.73
2023-01-29T01:58:22.459Z,3.72
2023-01-29T01:59:22.776Z,3.75
2023-01-29T02:00:22.939Z,3.82
2023-01-29T02:01:25.651Z,3.85
2023-01-29T02:02:23.383Z,3.73
2023-01-29T02:03:23.376Z,3.82
2023-01-29T02:04:23.384Z,3.68
2023-01-29T02:05:23.420Z,3.75
2023-01-29T02:06:23.469Z,3.79
2023-01-29T02:07:23.494Z,3.82
2023-01-29T02:08:23.541Z,3.76
2023-01-29T02:09:23.580Z,3.83
2023-01-29T02:10:23.613Z,3.86
2023-01-29T02:11:23.643Z,3.89
2023-01-29T02:12:23.749Z,3.93
2023-01-29T02:13:23.708Z,3.93
2023-01-29T02:14:23.705Z,3.92
2023-01-29T02:15:23.741Z,3.92
2023-01-29T02:16:23.764Z,3.90
2023-01-29T02:17:23.865Z,3.94
2023-01-29T02:18:23.832Z,3.94
2023-01-29T02:19:23.866Z,3.86
2023-01-29T02:20:23.890Z,3.94
2023-01-29T02:21:23.933Z,3.94
2023-01-29T02:22:23.961Z,3.87
2023-01-29T02:23:24.010Z,3.86
2023-01-29T02:24:24.057Z,3.86
2023-01-29T02:25:24.102Z,3.90
2023-01-29T03:20:31.197Z,3.57
2023-01-29T03:21:31.433Z,3.42
2023-01-29T03:22:31.633Z,3.42
2023-01-29T03:23:31.848Z,3.54
2023-01-29T03:24:32.143Z,3.35
2023-01-29T03:25:32.349Z,3.35
2023-01-29T03:26:32.562Z,3.41
2023-01-29T03:27:32.803Z,3.48
2023-01-29T03:28:33.062Z,3.51
2023-01-29T03:29:33.310Z,3.45
2023-01-29T04:02:41.103Z,3.80
2023-01-29T04:03:41.348Z,3.63
2023-01-29T04:04:41.578Z,3.73
2023-01-29T04:05:41.811Z,3.72
2023-01-29T04:06:42.048Z,3.73
2023-01-29T04:07:42.280Z,3.65
2023-01-29T04:08:42.525Z,3.65
2023-01-29T04:09:42.708Z,3.66
2023-01-29T04:10:42.998Z,3.73
2023-01-29T04:11:43.237Z,3.72
2023-01-29T04:12:43.446Z,3.73
2023-01-29T04:13:43.705Z,3.61
2023-01-29T04:14:43.916Z,3.69
2023-01-29T04:15:44.153Z,3.70
2023-01-29T04:16:44.432Z,3.66
2023-01-29T04:17:44.643Z,3.66
2023-01-29T04:18:44.864Z,3.72
2023-01-29T04:19:45.114Z,3.65
2023-01-29T04:20:45.364Z,3.66
2023-01-29T04:44:51.177Z,3.69
2023-01-29T04:45:51.443Z,3.73
2023-01-29T04:46:51.708Z,3.72
2023-01-29T04:47:51.962Z,3.59
2023-01-29T04:48:52.231Z,3.62
2023-01-29T04:49:52.486Z,3.55
2023-01-29T05:26:01.084Z,3.80
2023-01-29T05:27:01.309Z,3.82
2023-01-29T05:28:01.573Z,3.83
2023-01-29T05:29:01.795Z,3.82
2023-01-29T05:30:02.047Z,3.85
2023-01-29T05:31:02.388Z,3.86
2023-01-29T05:32:02.562Z,3.83
2023-01-29T05:33:02.815Z,3.82
2023-01-29T05:34:03.030Z,3.83
2023-01-29T05:35:03.254Z,3.83
2023-01-29T05:36:04.123Z,3.82
2023-01-29T05:37:03.478Z,3.83
2023-01-29T05:38:03.499Z,3.83
2023-01-29T05:39:03.522Z,3.83
2023-01-29T05:40:03.532Z,3.83
2023-01-29T05:41:03.567Z,3.83
2023-01-29T05:42:03.600Z,3.83
2023-01-29T05:43:03.611Z,3.82
2023-01-29T05:44:03.649Z,3.80
2023-01-29T05:45:03.700Z,3.83
2023-01-29T05:46:03.838Z,3.80
2023-01-29T05:47:03.816Z,3.82
2023-01-29T05:48:03.760Z,3.83
2023-01-29T05:49:03.791Z,3.82
2023-01-29T05:50:03.830Z,3.83
2023-01-29T05:51:04.612Z,3.82
2023-01-29T05:52:03.875Z,3.82
2023-01-29T05:53:03.931Z,3.83
2023-01-29T05:54:03.945Z,3.85
2023-01-29T05:55:03.986Z,3.85
2023-01-29T05:56:04.009Z,3.87
2023-01-29T05:57:04.023Z,3.83
2023-01-29T05:58:05.893Z,3.86
2023-01-29T05:59:04.081Z,3.46
2023-01-29T06:00:04.112Z,3.39
2023-01-29T06:01:04.138Z,3.41
2023-01-29T06:02:04.261Z,3.45
2023-01-29T06:03:04.323Z,3.42
2023-01-29T06:04:04.274Z,3.39
2023-01-29T06:05:04.394Z,3.39
2023-01-29T06:06:04.369Z,3.34
2023-01-29T06:07:04.424Z,3.38
2023-01-29T06:08:04.477Z,3.39
2023-01-29T06:09:04.562Z,3.36
2023-01-29T06:10:04.602Z,3.20
2023-01-29T06:11:04.667Z,2.75
2023-01-29T06:12:04.696Z,2.73
2023-01-29T06:13:04.767Z,2.58
2023-01-29T06:14:04.817Z,2.52
2023-01-29T06:15:04.852Z,2.45
2023-01-29T06:16:04.892Z,2.56
2023-01-29T06:17:04.915Z,2.41
2023-01-29T06:18:04.962Z,2.49
2023-01-29T06:19:05.084Z,2.30
2023-01-29T06:20:05.185Z,2.30
2023-01-29T06:21:05.182Z,2.30
2023-01-29T06:22:05.181Z,2.24
2023-01-29T06:23:05.225Z,1.95
2023-01-29T06:24:05.299Z,1.78
2023-01-29T06:25:05.327Z,1.71
2023-01-29T06:26:05.361Z,1.75
2023-01-29T06:27:05.458Z,1.53
2023-01-29T06:28:05.391Z,1.51
2023-01-29T06:29:05.406Z,1.34
2023-01-29T06:30:05.429Z,1.10
2023-01-29T06:31:22.045Z,1.16
2023-01-29T06:32:06.585Z,1.15
2023-01-29T06:33:05.517Z,1.18
2023-01-29T06:34:05.524Z,0.96
2023-01-29T06:35:05.542Z,1.06
2023-01-29T06:36:05.550Z,0.89
2023-01-29T06:37:05.573Z,0.98
2023-01-29T06:38:05.599Z,0.80
2023-01-29T06:39:05.613Z,1.00
2023-01-29T06:40:05.640Z,0.77
2023-01-29T06:41:05.663Z,0.99
2023-01-29T06:42:05.687Z,0.82
2023-01-29T06:43:05.706Z,0.81
2023-01-29T06:44:05.705Z,0.63
2023-01-29T06:45:05.725Z,0.63
2023-01-29T06:46:05.738Z,0.61
2023-01-29T06:47:05.782Z,0.56
2023-01-29T06:48:05.754Z,0.80
2023-01-29T06:49:05.788Z,0.78
2023-01-29T06:50:05.833Z,0.85
2023-01-29T06:51:06.006Z,0.59
2023-01-29T06:52:06.182Z,0.85
2023-01-29T06:53:06.478Z,1.00
2023-01-29T06:54:06.735Z,0.85
2023-01-29T06:55:06.982Z,0.77
2023-01-29T06:56:07.238Z,0.59
2023-01-29T06:57:07.484Z,0.75
2023-01-29T06:58:07.762Z,0.68
2023-01-29T06:59:08.010Z,0.77
2023-01-29T07:00:08.258Z,0.85
2023-01-29T07:01:08.554Z,0.87
2023-01-29T07:02:08.804Z,0.82
2023-01-29T07:03:08.979Z,0.81
2023-01-29T07:04:09.207Z,0.96
2023-01-29T07:05:09.477Z,0.59
2023-01-29T07:06:09.710Z,0.82
2023-01-29T07:07:09.965Z,0.60
2023-01-29T07:12:11.283Z,0.23
2023-01-29T07:13:11.535Z,0.12
2023-01-29T07:14:11.789Z,0.11
2023-01-29T07:15:12.047Z,0.26
2023-01-29T07:16:12.332Z,0.44
2023-01-29T07:54:21.100Z,0.67
2023-01-29T07:55:21.358Z,0.88
2023-01-29T07:56:21.607Z,0.82
2023-01-29T07:57:21.940Z,1.02
2023-01-29T07:58:22.160Z,1.09
2023-01-29T07:59:22.432Z,0.77
2023-01-29T08:00:22.700Z,0.61
2023-01-29T08:01:23.079Z,0.57
2023-01-29T08:02:23.411Z,0.32
2023-01-29T08:03:23.586Z,0.22
2023-01-29T08:04:23.864Z,0.29
2023-01-29T08:05:24.138Z,0.30
2023-01-29T08:06:24.408Z,0.16
2023-01-29T08:07:24.681Z,0.04
2023-01-29T08:08:24.954Z,-0.08
2023-01-29T08:09:25.230Z,-0.08
2023-01-29T08:10:25.483Z,-0.36
2023-01-29T08:11:25.781Z,-0.34
2023-01-29T08:12:26.040Z,-0.34
2023-01-29T08:13:26.314Z,-0.69
2023-01-29T08:14:26.587Z,-0.58
2023-01-29T08:15:26.847Z,-0.57
2023-01-29T08:16:27.171Z,-0.58
2023-01-29T08:17:27.394Z,-0.68
2023-01-29T08:18:27.724Z,-0.69
2023-01-29T08:19:27.926Z,-0.64
2023-01-29T08:20:28.356Z,-0.69
2023-01-29T08:21:28.344Z,-0.50
2023-01-29T08:22:28.725Z,-0.37
2023-01-29T08:23:28.995Z,-0.44
2023-01-29T08:24:41.535Z,-0.38
2023-01-29T08:25:30.361Z,-0.40
2023-01-29T08:26:29.332Z,-0.31
2023-01-29T08:27:29.366Z,-0.46
2023-01-29T08:28:29.381Z,-0.54
2023-01-29T08:29:29.421Z,-0.44
2023-01-29T08:30:29.454Z,-0.56
2023-01-29T08:31:29.581Z,-0.25
2023-01-29T08:32:29.507Z,-0.10
2023-01-29T08:33:38.714Z,-0.31
2023-01-29T08:54:31.112Z,0.30
2023-01-29T08:55:31.179Z,0.42
2023-01-29T08:56:31.225Z,0.65
2023-01-29T08:57:31.262Z,0.80
2023-01-29T08:58:31.373Z,0.80
2023-01-29T08:59:31.412Z,0.84
2023-01-29T09:00:31.520Z,0.98
2023-01-29T09:01:31.816Z,0.63
2023-01-29T09:02:31.981Z,0.70
2023-01-29T09:03:32.160Z,0.60
2023-01-29T09:04:32.396Z,0.70
2023-01-29T09:05:32.638Z,0.75
2023-01-29T09:06:32.880Z,0.81
2023-01-29T09:07:33.119Z,0.93
2023-01-29T09:08:33.368Z,1.15
2023-01-29T09:09:33.564Z,1.32
2023-01-29T09:10:33.719Z,0.84
2023-01-29T09:11:34.038Z,0.92
2023-01-29T09:12:34.307Z,0.92
2023-01-29T09:13:34.532Z,0.87
2023-01-29T09:14:34.734Z,0.71
2023-01-29T09:15:34.937Z,1.02
2023-01-29T09:16:35.275Z,0.96
2023-01-29T09:17:35.543Z,1.15
2023-01-29T09:40:41.186Z,1.65
2023-01-29T09:41:41.524Z,1.74
2023-01-29T09:42:41.769Z,1.74
2023-01-29T09:43:42.004Z,1.89
2023-01-29T09:44:42.204Z,1.65
2023-01-29T09:45:42.433Z,1.69
2023-01-29T09:46:42.661Z,1.61
2023-01-29T09:47:42.995Z,1.57
2023-01-29T09:48:43.212Z,1.23
2023-01-29T09:49:43.458Z,1.36
2023-01-29T09:50:43.796Z,1.39
2023-01-29T09:51:44.013Z,0.91
2023-01-29T09:52:44.326Z,0.92
2023-01-29T10:21:51.212Z,1.82
2023-01-29T10:23:51.544Z,1.61
2023-01-29T11:06:01.223Z,3.34
2023-01-29T11:07:01.458Z,3.36
2023-01-29T11:08:01.666Z,3.45
2023-01-29T11:09:01.978Z,3.45
2023-01-29T11:10:02.169Z,3.51
2023-01-29T11:11:02.415Z,3.55
2023-01-29T11:12:02.587Z,3.45
2023-01-29T11:13:02.833Z,3.69
2023-01-29T11:14:03.080Z,3.68
2023-01-29T11:15:03.272Z,3.42
2023-01-29T11:16:03.482Z,3.30
2023-01-29T11:17:03.783Z,3.44
2023-01-29T11:18:03.947Z,3.52
2023-01-29T11:19:04.130Z,3.27
2023-01-29T11:20:04.322Z,3.04
2023-01-29T11:21:04.533Z,3.30
2023-01-29T11:22:04.728Z,3.50
2023-01-29T11:23:06.760Z,3.36
2023-01-29T11:24:05.087Z,3.44
2023-01-29T12:03:11.209Z,4.58
2023-01-29T12:04:11.371Z,4.21
2023-01-29T12:05:11.595Z,4.05
2023-01-29T12:06:11.937Z,4.04
2023-01-29T12:07:12.055Z,4.07
2023-01-29T12:08:12.199Z,4.31
2023-01-29T12:09:12.459Z,4.28
2023-01-29T12:53:21.205Z,6.63
2023-01-29T12:54:21.428Z,6.60
2023-01-29T12:55:22.148Z,6.73
2023-01-29T13:51:31.279Z,7.61
2023-01-29T13:52:31.372Z,7.58
2023-01-29T13:53:31.609Z,7.67
2023-01-29T13:54:31.787Z,7.75
2023-01-29T13:55:31.972Z,7.72
2023-01-29T13:56:32.155Z,7.42
2023-01-29T13:57:32.364Z,7.60
2023-01-29T13:58:32.552Z,7.70
2023-01-29T13:59:32.749Z,7.74
2023-01-29T14:00:32.944Z,7.77
2023-01-29T14:01:33.168Z,7.81
2023-01-29T14:02:33.384Z,7.84
2023-01-29T14:03:56.125Z,7.91
2023-01-29T14:05:33.367Z,7.92
2023-01-29T14:06:33.294Z,7.84
2023-01-29T14:07:33.216Z,7.78
2023-01-29T14:08:33.193Z,7.78
2023-01-29T14:09:33.126Z,7.80
2023-01-29T14:10:33.037Z,7.84
2023-01-29T14:11:32.958Z,7.82
2023-01-29T14:12:33.111Z,7.77
2023-01-29T14:13:33.267Z,7.84
2023-01-29T14:50:41.061Z,7.53
2023-01-29T14:51:41.247Z,7.49
2023-01-29T14:52:41.451Z,7.50
2023-01-29T14:53:41.671Z,7.53
2023-01-29T14:54:41.881Z,7.39
2023-01-29T14:55:42.107Z,7.43
2023-01-29T14:56:42.319Z,7.46
2023-01-29T14:57:42.521Z,7.47
2023-01-29T14:58:42.741Z,7.49
2023-01-29T14:59:42.945Z,7.46
2023-01-29T15:00:43.183Z,7.44
2023-01-29T15:01:43.473Z,7.43
2023-01-29T15:02:43.701Z,7.44
2023-01-29T15:03:43.898Z,7.34
2023-01-29T15:04:44.104Z,7.40
2023-01-29T15:05:44.324Z,7.43
2023-01-29T15:06:44.520Z,7.37
2023-01-29T15:07:44.736Z,7.31
2023-01-29T15:08:44.951Z,7.39
2023-01-29T15:09:45.233Z,7.39
2023-01-29T15:10:45.366Z,7.39
2023-01-29T15:11:45.570Z,7.33
2023-01-29T15:12:45.789Z,7.33
2023-01-29T15:13:45.989Z,7.34
2023-01-29T15:14:46.190Z,7.31
2023-01-29T15:15:46.445Z,7.30
2023-01-29T15:16:46.644Z,7.23
2023-01-29T15:17:46.867Z,7.26
2023-01-29T15:18:47.076Z,7.26
2023-01-29T15:19:47.299Z,7.11
2023-01-29T15:20:47.517Z,7.20
2023-01-29T15:21:47.728Z,7.18
2023-01-29T15:22:47.949Z,7.11
2023-01-29T15:23:48.165Z,7.13
2023-01-29T15:24:48.378Z,7.18
2023-01-29T15:25:48.597Z,7.13
2023-01-29T15:26:48.859Z,7.11
2023-01-29T15:27:48.977Z,7.11
2023-01-29T15:28:58.512Z,7.11
2023-01-29T15:29:50.137Z,7.09
2023-01-29T15:30:49.169Z,7.08
2023-01-29T15:31:49.185Z,7.08
2023-01-29T15:32:48.964Z,7.08
2023-01-29T15:33:49.027Z,7.08
2023-01-29T15:34:48.958Z,6.96
2023-01-29T15:35:51.645Z,6.95
2023-01-29T15:36:48.861Z,6.92
2023-01-29T15:37:48.785Z,6.94
2023-01-29T15:38:48.752Z,6.91
2023-01-29T15:39:48.685Z,6.83
2023-01-29T15:40:48.613Z,6.88
2023-01-29T15:41:48.687Z,6.85
2023-01-29T15:42:48.706Z,6.81
2023-01-29T15:43:48.588Z,6.81
2023-01-29T15:44:48.517Z,6.78
2023-01-29T15:45:48.455Z,6.75
2023-01-29T15:46:48.370Z,6.73
2023-01-29T15:47:48.346Z,6.77
2023-01-29T15:48:48.272Z,6.73
2023-01-29T15:49:48.448Z,6.71
2023-01-29T15:50:48.656Z,6.70
2023-01-29T15:51:48.882Z,6.67
2023-01-29T15:52:49.008Z,6.64
2023-01-29T15:53:49.237Z,6.61
2023-01-29T15:54:49.464Z,6.60
2023-01-29T15:55:49.711Z,6.57
2023-01-29T15:56:49.862Z,6.56
2023-01-29T15:57:50.086Z,6.56
2023-01-29T15:58:50.323Z,6.51
2023-01-29T15:59:50.459Z,6.47
2023-01-29T16:00:50.686Z,6.44
2023-01-29T16:01:50.947Z,6.43
2023-01-29T16:02:51.197Z,6.40
2023-01-29T16:03:51.430Z,6.37
2023-01-29T16:04:51.577Z,6.39
2023-01-29T16:05:51.833Z,6.36
2023-01-29T16:06:51.983Z,6.36
2023-01-29T16:07:52.244Z,6.33
2023-01-29T16:08:52.396Z,6.29
2023-01-29T16:09:52.638Z,6.29
2023-01-29T16:10:52.787Z,6.25
2023-01-29T16:11:53.030Z,6.22
2023-01-29T16:12:53.268Z,6.21
2023-01-29T16:13:53.409Z,6.21
2023-01-29T16:14:53.670Z,6.21
2023-01-29T16:15:53.930Z,6.16
2023-01-29T16:16:54.109Z,6.15
2023-01-29T16:17:54.318Z,6.12
2023-01-29T16:19:00.377Z,6.11
2023-01-29T16:19:55.411Z,6.09
2023-01-29T16:20:54.365Z,6.11
2023-01-29T16:21:54.334Z,6.08
2023-01-29T16:22:54.278Z,6.04
2023-01-29T16:23:54.247Z,5.98
2023-01-29T16:24:54.204Z,5.97
2023-01-29T16:25:54.168Z,5.96
2023-01-29T16:26:54.123Z,5.96
2023-01-29T16:27:54.083Z,5.91
2023-01-29T16:28:54.039Z,5.87
2023-01-29T16:29:54.036Z,5.86
2023-01-29T16:30:54.197Z,5.87
2023-01-29T16:31:55.194Z,5.86
2023-01-29T16:32:53.997Z,5.80
2023-01-29T16:33:53.965Z,5.80
2023-01-29T16:34:53.914Z,5.75
2023-01-29T16:35:53.899Z,5.77
2023-01-29T16:36:54.699Z,5.71
2023-01-29T16:37:53.809Z,5.71
2023-01-29T16:38:53.769Z,5.70
2023-01-29T16:39:53.949Z,5.66
2023-01-29T16:40:54.150Z,5.69
2023-01-29T16:41:54.337Z,5.63
2023-01-29T16:42:54.508Z,5.64
2023-01-29T16:43:54.715Z,5.60
2023-01-29T16:44:54.890Z,5.54
2023-01-29T16:45:55.120Z,5.56
2023-01-29T16:46:55.350Z,5.54
2023-01-29T16:47:55.590Z,5.52
2023-01-29T16:48:55.766Z,5.50
2023-01-29T16:49:56.023Z,5.49
2023-01-29T16:50:56.279Z,5.49
2023-01-29T16:51:56.452Z,5.45
2023-01-29T16:52:57.705Z,5.46
2023-01-29T16:53:56.693Z,5.45
2023-01-29T16:54:56.725Z,5.42
2023-01-29T16:55:56.772Z,5.42
2023-01-29T16:56:56.804Z,5.43
2023-01-29T16:57:56.835Z,5.41
2023-01-29T16:58:56.954Z,5.38
2023-01-29T16:59:56.898Z,5.36
2023-01-29T17:00:56.958Z,5.36
2023-01-29T17:01:56.953Z,5.35
2023-01-29T17:02:56.988Z,5.35
2023-01-29T17:03:57.136Z,5.32
2023-01-29T17:04:57.315Z,5.32
2023-01-29T17:05:57.521Z,5.29
2023-01-29T17:06:57.724Z,5.29
2023-01-29T17:07:57.944Z,5.27
2023-01-29T17:08:58.187Z,5.25
2023-01-29T17:09:58.386Z,5.24
2023-01-29T17:23:01.205Z,5.01
2023-01-29T17:24:01.476Z,5.00
2023-01-29T17:25:01.677Z,4.97
2023-01-29T17:26:01.888Z,4.95
2023-01-29T17:27:02.136Z,4.91
2023-01-29T17:28:02.420Z,4.91
2023-01-29T17:29:02.609Z,4.88
2023-01-29T17:30:02.824Z,4.90
2023-01-29T17:31:06.762Z,4.87
2023-01-29T17:32:03.031Z,4.86
2023-01-29T17:33:02.983Z,4.84
2023-01-29T17:34:02.933Z,4.81
2023-01-29T17:35:02.916Z,4.80
2023-01-29T17:36:02.965Z,4.77
2023-01-29T17:37:02.968Z,4.77
2023-01-29T17:38:02.921Z,4.77
2023-01-29T17:39:02.898Z,4.76
2023-01-29T17:40:05.261Z,4.74
2023-01-29T17:41:02.946Z,4.73
2023-01-29T17:42:02.952Z,4.72
2023-01-29T17:43:02.939Z,4.72
2023-01-29T17:44:02.954Z,4.70
2023-01-29T17:45:02.948Z,4.66
2023-01-29T17:47:02.923Z,4.62
2023-01-29T17:48:02.917Z,4.60
2023-01-29T17:49:02.901Z,4.60
2023-01-29T18:15:02.720Z,4.35
2023-01-29T20:22:11.078Z,3.36
2023-01-29T20:23:11.131Z,3.34
2023-01-29T20:24:11.199Z,3.34
2023-01-29T20:25:11.263Z,3.36
2023-01-29T21:04:13.455Z,3.04
2023-01-29T21:06:13.512Z,3.00
2023-01-29T21:07:13.538Z,3.02
2023-01-29T21:08:13.583Z,2.98
2023-01-29T21:09:13.638Z,2.95
2023-01-29T21:11:13.771Z,2.98
2023-01-29T21:12:13.805Z,2.99
2023-01-29T21:13:13.872Z,2.99
2023-01-29T21:14:13.944Z,3.02
2023-01-29T21:15:14.024Z,2.98
2023-01-29T21:16:14.151Z,2.99
2023-01-29T21:17:14.152Z,2.99
2023-01-29T21:18:14.225Z,2.99
2023-01-29T21:19:14.302Z,3.00
2023-01-29T21:20:14.550Z,3.00
2023-01-29T21:21:14.442Z,2.99
2023-01-29T21:22:14.510Z,3.02
2023-01-29T21:23:14.574Z,2.99
2023-01-29T21:24:14.632Z,2.96
2023-01-29T21:25:14.707Z,2.95
2023-01-29T21:26:14.801Z,2.93
2023-01-29T21:27:14.809Z,2.95
2023-01-29T21:28:14.867Z,2.92
2023-01-29T21:29:14.902Z,2.89
2023-01-29T21:30:15.288Z,2.89
2023-01-29T23:09:21.164Z,2.20
2023-01-29T23:10:21.431Z,2.19
2023-01-29T23:11:21.694Z,2.17
2023-01-29T23:12:21.945Z,2.19
2023-01-29T23:13:22.203Z,2.16
2023-01-29T23:14:22.472Z,2.17
2023-01-29T23:15:22.729Z,2.17
2023-01-29T23:16:23.071Z,2.16
2023-01-29T23:17:23.239Z,2.17
2023-01-29T23:18:23.506Z,2.05
2023-01-29T23:19:23.765Z,2.10
2023-01-29T23:20:24.012Z,2.09
2023-01-29T23:21:24.265Z,2.09
2023-01-29T23:22:24.542Z,2.09
2023-01-29T23:23:24.824Z,2.08
2023-01-29T23:24:25.089Z,2.03
2023-01-29T23:25:25.359Z,2.03
2023-01-29T23:47:31.215Z,0.72
2023-01-29T23:48:31.461Z,0.49
2023-01-29T23:49:31.738Z,0.85
2023-01-29T23:50:32.007Z,0.88
2023-01-29T23:51:32.250Z,0.92
2023-01-29T23:52:32.418Z,0.96
2023-01-29T23:53:32.663Z,0.91
2023-01-29T23:54:32.939Z,0.85
2023-01-29T23:55:33.228Z,0.92
2023-01-29T23:56:33.476Z,0.78
2023-01-29T23:57:33.697Z,0.49
2023-01-29T23:58:33.910Z,0.40
2023-01-29T23:59:34.140Z,0.46
